createdAt,value
2023-09-06T00:02:16.146Z,101873.50
2023-09-06T00:04:45.508Z,101872.63
2023-09-06T00:07:14.326Z,101864.66
2023-09-06T00:09:41.217Z,101864.66
2023-09-06T00:12:10.036Z,101861.06
2023-09-06T00:14:37.961Z,101847.81
2023-09-06T00:17:04.727Z,101848.66
2023-09-06T00:19:31.416Z,101862.78
2023-09-06T00:22:00.445Z,101853.91
2023-09-06T00:24:27.299Z,101843.28
2023-09-06T00:26:55.974Z,101853.94
2023-09-06T00:29:22.771Z,101848.66
2023-09-06T00:31:49.496Z,101842.41
2023-09-06T00:34:16.692Z,101858.31
2023-09-06T00:36:45.746Z,101830.91
2023-09-06T00:39:15.287Z,101857.41
2023-09-06T00:41:42.920Z,101856.50
2023-09-06T00:44:09.696Z,101857.41
2023-09-06T00:46:40.207Z,101859.16
2023-09-06T00:49:08.828Z,101865.31
2023-09-06T00:51:35.638Z,101862.66
2023-09-06T00:54:02.461Z,101859.13
2023-09-06T00:56:33.036Z,101847.66
2023-09-06T00:59:02.327Z,101849.38
2023-09-06T01:01:29.931Z,101844.91
2023-09-06T01:03:58.410Z,101789.97
2023-09-06T01:06:29.040Z,101845.81
2023-09-06T01:09:00.152Z,101854.56
2023-09-06T01:11:28.403Z,101856.25
2023-09-06T01:14:04.647Z,101857.97
2023-09-06T01:16:41.625Z,101851.75
2023-09-06T01:19:12.841Z,101796.88
2023-09-06T01:21:59.802Z,101844.72
2023-09-06T01:24:30.412Z,101847.34
2023-09-06T01:26:58.727Z,101845.56
2023-09-06T01:29:25.468Z,101852.63
2023-09-06T01:31:52.152Z,101851.75
2023-09-06T01:34:18.925Z,101842.03
2023-09-06T01:36:45.645Z,101849.94
2023-09-06T01:39:12.517Z,101854.34
2023-09-06T01:41:39.128Z,101852.56
2023-09-06T01:44:06.204Z,101851.69
2023-09-06T01:46:32.989Z,101849.91
2023-09-06T01:49:02.737Z,101849.88
2023-09-06T01:51:29.546Z,101847.22
2023-09-06T01:53:56.579Z,101850.75
2023-09-06T01:56:23.319Z,101842.78
2023-09-06T01:58:52.269Z,101855.13
2023-09-06T02:01:20.403Z,101847.94
2023-09-06T02:03:47.192Z,101859.38
2023-09-06T02:06:16.929Z,101867.22
2023-09-06T02:08:46.011Z,101866.31
2023-09-06T02:11:12.660Z,101868.97
2023-09-06T02:13:39.364Z,101867.19
2023-09-06T02:16:07.999Z,101863.66
2023-09-06T02:18:34.832Z,101863.66
2023-09-06T02:21:03.512Z,101862.78
2023-09-06T02:23:30.260Z,101861.88
2023-09-06T02:25:59.311Z,101860.06
2023-09-06T02:28:26.049Z,101859.19
2023-09-06T02:30:52.732Z,101856.53
2023-09-06T02:33:21.816Z,101849.50
2023-09-06T02:35:50.931Z,101837.00
2023-09-06T02:38:18.228Z,101853.88
2023-09-06T02:40:45.124Z,101848.59
2023-09-06T02:43:12.522Z,101846.78
2023-09-06T02:45:39.584Z,101851.19
2023-09-06T02:48:08.893Z,101856.41
2023-09-06T02:50:35.818Z,101858.13
2023-09-06T02:53:05.229Z,101849.22
2023-09-06T02:55:36.927Z,101851.84
2023-09-06T02:58:03.604Z,101857.16
2023-09-06T03:00:31.298Z,101863.25
2023-09-06T03:03:07.161Z,101866.78
2023-09-06T03:05:44.927Z,101867.72
2023-09-06T03:08:13.525Z,101868.59
2023-09-06T03:10:45.910Z,101866.75
2023-09-06T03:13:12.813Z,101877.28
2023-09-06T03:15:44.822Z,101874.59
2023-09-06T03:18:11.807Z,101844.41
2023-09-06T03:20:45.296Z,101866.56
2023-09-06T03:23:20.472Z,101871.03
2023-09-06T03:25:59.602Z,101871.03
2023-09-06T03:28:27.376Z,101839.91
2023-09-06T03:30:54.656Z,101824.88
2023-09-06T03:33:21.309Z,101877.22
2023-09-06T03:35:48.978Z,101846.94
2023-09-06T03:38:19.343Z,101864.59
2023-09-06T03:40:50.569Z,101814.03
2023-09-06T03:43:18.189Z,101868.09
2023-09-06T03:45:46.545Z,101883.19
2023-09-06T03:48:18.971Z,101883.19
2023-09-06T03:50:47.214Z,101881.41
2023-09-06T03:53:15.936Z,101885.72
2023-09-06T03:55:45.553Z,101891.88
2023-09-06T03:58:12.352Z,101838.69
2023-09-06T04:00:40.771Z,101885.72
2023-09-06T04:03:10.086Z,101882.19
2023-09-06T04:05:37.100Z,101878.59
2023-09-06T04:08:10.540Z,101888.31
2023-09-06T04:10:41.720Z,101873.25
2023-09-06T04:13:10.738Z,101884.72
2023-09-06T04:15:37.488Z,101879.47
2023-09-06T04:18:11.390Z,101882.03
2023-09-06T04:20:46.204Z,101900.53
2023-09-06T04:23:14.606Z,101896.06
2023-09-06T04:25:43.493Z,101896.97
2023-09-06T04:28:20.589Z,101903.06
2023-09-06T04:30:47.716Z,101890.66
2023-09-06T04:33:17.405Z,101904.84
2023-09-06T04:35:46.070Z,101900.41
2023-09-06T04:38:14.041Z,101897.78
2023-09-06T04:40:41.061Z,101902.97
2023-09-06T04:43:08.998Z,101847.97
2023-09-06T04:45:39.204Z,101904.78
2023-09-06T04:48:13.203Z,101909.97
2023-09-06T04:50:44.406Z,101909.09
2023-09-06T04:53:14.487Z,101897.59
2023-09-06T04:55:41.662Z,101907.28
2023-09-06T04:58:13.141Z,101915.22
2023-09-06T05:00:44.560Z,101917.84
2023-09-06T05:03:15.024Z,101920.44
2023-09-06T05:05:43.093Z,101925.69
2023-09-06T05:08:13.084Z,101923.00
2023-09-06T05:10:42.533Z,101921.19
2023-09-06T05:13:09.830Z,101918.53
2023-09-06T05:15:39.176Z,101848.50
2023-09-06T05:18:07.553Z,101905.31
2023-09-06T05:20:38.684Z,101916.75
2023-09-06T05:23:06.871Z,101921.19
2023-09-06T05:25:34.514Z,101856.41
2023-09-06T05:28:03.507Z,101931.72
2023-09-06T05:30:35.930Z,101917.56
2023-09-06T05:33:02.662Z,101928.22
2023-09-06T05:35:31.786Z,101930.88
2023-09-06T05:38:01.408Z,101929.13
2023-09-06T05:40:30.978Z,101934.41
2023-09-06T05:42:58.353Z,101904.31
2023-09-06T05:45:25.052Z,101929.97
2023-09-06T05:47:51.952Z,101930.91
2023-09-06T05:50:18.891Z,101937.94
2023-09-06T05:52:45.668Z,101939.78
2023-09-06T05:55:14.408Z,101833.38
2023-09-06T05:57:41.087Z,101946.06
2023-09-06T06:00:14.301Z,101948.78
2023-09-06T06:02:41.441Z,101953.25
2023-09-06T06:05:11.165Z,101947.16
2023-09-06T06:07:40.740Z,101943.78
2023-09-06T06:10:11.193Z,101922.59
2023-09-06T06:12:40.748Z,101939.56
2023-09-06T06:15:15.065Z,101939.69
2023-09-06T06:17:43.029Z,101943.28
2023-09-06T06:20:12.382Z,101935.50
2023-09-06T06:22:41.108Z,101939.16
2023-09-06T06:25:09.396Z,101934.03
2023-09-06T06:27:42.446Z,101936.78
2023-09-06T06:30:09.713Z,101936.00
2023-09-06T06:32:37.164Z,101939.63
2023-09-06T06:35:07.594Z,101934.50
2023-09-06T06:37:37.480Z,101939.94
2023-09-06T06:40:07.372Z,101938.34
2023-09-06T06:42:35.485Z,101940.25
2023-09-06T06:45:05.934Z,101939.50
2023-09-06T06:47:35.542Z,101936.16
2023-09-06T06:50:07.173Z,101943.34
2023-09-06T06:52:37.963Z,101934.63
2023-09-06T06:55:07.931Z,101938.34
2023-09-06T06:57:36.639Z,101938.47
2023-09-06T07:00:07.475Z,101892.53
2023-09-06T07:02:39.147Z,101933.38
2023-09-06T07:05:06.048Z,101917.59
2023-09-06T07:07:32.776Z,101930.09
2023-09-06T07:09:59.399Z,101950.56
2023-09-06T07:12:26.096Z,101935.59
2023-09-06T07:14:53.249Z,101945.41
2023-09-06T07:17:22.136Z,101939.28
2023-09-06T07:19:51.470Z,101916.34
2023-09-06T07:22:18.300Z,101955.41
2023-09-06T07:24:47.212Z,101957.22
2023-09-06T07:27:13.875Z,101880.31
2023-09-06T07:29:42.976Z,101945.66
2023-09-06T07:32:09.771Z,101887.16
2023-09-06T07:34:36.483Z,101924.84
2023-09-06T07:37:03.768Z,101952.72
2023-09-06T07:39:30.733Z,101965.53
2023-09-06T07:41:57.521Z,101900.50
2023-09-06T07:44:24.216Z,101958.91
2023-09-06T07:46:53.341Z,101961.72
2023-09-06T07:49:22.555Z,101949.41
2023-09-06T07:51:49.313Z,101930.84
2023-09-06T07:54:16.065Z,101960.66
2023-09-06T07:56:44.119Z,101927.94
2023-09-06T07:59:13.244Z,101949.91
2023-09-06T08:01:45.710Z,101960.28
2023-09-06T08:04:14.751Z,101953.00
2023-09-06T08:06:44.321Z,101962.53
2023-09-06T08:09:11.858Z,101972.03
2023-09-06T08:11:40.908Z,101967.34
2023-09-06T08:14:10.084Z,101929.28
2023-09-06T08:16:36.851Z,101973.78
2023-09-06T08:19:04.638Z,101949.59
2023-09-06T08:21:31.709Z,101963.13
2023-09-06T08:23:58.534Z,101914.97
2023-09-06T08:26:25.245Z,101978.03
2023-09-06T08:28:57.482Z,101959.28
2023-09-06T08:31:24.265Z,101983.91
2023-09-06T08:33:51.277Z,101935.72
2023-09-06T08:36:19.464Z,101986.88
2023-09-06T08:38:51.064Z,101984.38
2023-09-06T08:41:18.520Z,101973.59
2023-09-06T08:43:45.379Z,101975.03
2023-09-06T08:46:28.620Z,101966.09
2023-09-06T08:48:57.357Z,101963.53
2023-09-06T08:51:33.485Z,101959.66
2023-09-06T08:54:01.326Z,101959.41
2023-09-06T08:56:28.622Z,101955.13
2023-09-06T08:58:55.318Z,101967.00
2023-09-06T09:01:23.306Z,101956.81
2023-09-06T09:03:50.351Z,101964.69
2023-09-06T09:06:19.286Z,101975.03
2023-09-06T09:08:46.060Z,101967.91
2023-09-06T09:11:20.037Z,101964.19
2023-09-06T09:13:49.358Z,101902.44
2023-09-06T09:16:17.777Z,101958.16
2023-09-06T09:18:46.157Z,101964.88
2023-09-06T09:21:14.374Z,101969.03
2023-09-06T09:23:48.000Z,101968.06
2023-09-06T09:26:15.136Z,101960.06
2023-09-06T09:28:42.777Z,101973.06
2023-09-06T09:31:16.954Z,101966.72
2023-09-06T09:33:47.261Z,101922.22
2023-09-06T09:36:16.064Z,101981.72
2023-09-06T09:38:51.068Z,101976.81
2023-09-06T09:41:18.672Z,101966.44
2023-09-06T09:43:47.601Z,101959.88
2023-09-06T09:46:27.308Z,101964.63
2023-09-06T09:49:00.177Z,101947.06
2023-09-06T09:51:29.617Z,101961.75
2023-09-06T09:53:56.674Z,101962.84
2023-09-06T09:56:23.999Z,101968.03
2023-09-06T09:58:52.903Z,101943.88
2023-09-06T10:01:21.503Z,101951.56
2023-09-06T10:03:51.199Z,101970.84
2023-09-06T10:06:18.887Z,101949.47
2023-09-06T10:08:49.261Z,101975.28
2023-09-06T10:11:18.874Z,101966.63
2023-09-06T10:13:49.010Z,101950.88
2023-09-06T10:16:15.805Z,101948.03
2023-09-06T10:18:43.422Z,101884.13
2023-09-06T10:21:15.645Z,101941.41
2023-09-06T10:23:43.595Z,101943.06
2023-09-06T10:26:10.927Z,101935.06
2023-09-06T10:28:40.401Z,101940.25
2023-09-06T10:31:10.037Z,101953.50
2023-09-06T10:33:37.214Z,101939.97
2023-09-06T10:36:13.146Z,101929.31
2023-09-06T10:38:52.044Z,101942.72
2023-09-06T10:41:22.556Z,101951.09
2023-09-06T10:44:08.569Z,101918.22
2023-09-06T10:46:38.559Z,101945.34
2023-09-06T10:49:15.159Z,101952.78
2023-09-06T10:52:01.582Z,101951.06
2023-09-06T10:54:39.643Z,101949.53
2023-09-06T10:57:11.793Z,101943.09
2023-09-06T10:59:46.683Z,101949.28
2023-09-06T11:02:25.056Z,101946.22
2023-09-06T11:05:09.793Z,101942.06
2023-09-06T11:07:50.427Z,101944.16
2023-09-06T11:10:25.265Z,101931.78
2023-09-06T11:12:55.612Z,101934.63
2023-09-06T11:15:23.882Z,101928.50
2023-09-06T11:18:00.434Z,101937.75
2023-09-06T11:20:27.468Z,101939.25
2023-09-06T11:22:58.444Z,101926.25
2023-09-06T11:25:26.555Z,101941.41
2023-09-06T11:28:02.210Z,101940.66
2023-09-06T11:30:32.905Z,101922.34
2023-09-06T11:33:00.030Z,101883.84
2023-09-06T11:35:29.990Z,101947.88
2023-09-06T11:38:01.490Z,101835.53
2023-09-06T11:40:31.128Z,101938.28
2023-09-06T11:43:03.823Z,101928.03
2023-09-06T11:45:32.845Z,101938.09
2023-09-06T11:48:09.664Z,101933.53
2023-09-06T11:50:39.722Z,101879.94
2023-09-06T11:53:11.339Z,101936.13
2023-09-06T11:55:47.138Z,101919.56
2023-09-06T11:58:22.520Z,101941.56
2023-09-06T12:00:52.787Z,101901.84
2023-09-06T12:03:23.271Z,101854.81
2023-09-06T12:05:54.632Z,101922.88
2023-09-06T12:08:26.484Z,101918.75
2023-09-06T12:10:56.090Z,101910.88
2023-09-06T12:13:33.243Z,101911.66
2023-09-06T12:16:00.716Z,101918.84
2023-09-06T12:18:31.549Z,101916.31
2023-09-06T12:20:59.610Z,101916.50
2023-09-06T12:23:30.614Z,101911.50
2023-09-06T12:25:59.136Z,101911.84
2023-09-06T12:28:26.742Z,101919.34
2023-09-06T12:30:56.392Z,101861.78
2023-09-06T12:33:28.532Z,101917.41
2023-09-06T12:36:06.875Z,101916.81
2023-09-06T12:38:33.719Z,101911.09
2023-09-06T12:41:06.223Z,101908.75
2023-09-06T12:43:36.400Z,101920.09
2023-09-06T12:46:12.524Z,101921.53
2023-09-06T12:48:39.733Z,101928.94
2023-09-06T12:51:07.906Z,101922.31
2023-09-06T12:53:35.257Z,101923.22
2023-09-06T12:56:01.975Z,101930.38
2023-09-06T12:58:29.159Z,101934.13
2023-09-06T13:00:58.629Z,101934.50
2023-09-06T13:03:26.662Z,101918.88
2023-09-06T13:05:53.733Z,101931.25
2023-09-06T13:08:21.087Z,101936.66
2023-09-06T13:10:48.321Z,101932.09
2023-09-06T13:13:19.973Z,101930.16
2023-09-06T13:15:49.456Z,101922.09
2023-09-06T13:18:16.288Z,101929.97
2023-09-06T13:20:43.053Z,101924.13
2023-09-06T13:23:11.769Z,101918.47
2023-09-06T13:25:39.584Z,101903.16
2023-09-06T13:28:06.482Z,101912.38
2023-09-06T13:30:33.279Z,101917.25
2023-09-06T13:33:02.527Z,101916.81
2023-09-06T13:35:29.393Z,101917.84
2023-09-06T13:37:57.494Z,101911.72
2023-09-06T13:40:25.216Z,101905.66
2023-09-06T13:42:52.049Z,101909.31
2023-09-06T13:45:19.807Z,101900.50
2023-09-06T13:47:46.716Z,101863.47
2023-09-06T13:50:13.433Z,101910.94
2023-09-06T13:52:40.118Z,101911.69
2023-09-06T13:55:07.986Z,101900.13
2023-09-06T13:57:36.933Z,101892.16
2023-09-06T14:00:07.110Z,101902.91
2023-09-06T14:02:36.409Z,101906.44
2023-09-06T14:05:05.854Z,101878.16
2023-09-06T14:07:32.687Z,101914.38
2023-09-06T14:09:59.732Z,101895.03
2023-09-06T14:12:27.256Z,101909.31
2023-09-06T14:14:57.947Z,101898.78
2023-09-06T14:17:24.838Z,101909.56
2023-09-06T14:19:52.023Z,101906.91
2023-09-06T14:22:18.709Z,101910.59
2023-09-06T14:24:45.370Z,101910.63
2023-09-06T14:27:12.257Z,101905.31
2023-09-06T14:29:39.004Z,101902.78
2023-09-06T14:32:05.990Z,101898.38
2023-09-06T14:34:36.500Z,101905.41
2023-09-06T14:37:04.863Z,101904.44
2023-09-06T14:39:33.708Z,101897.44
2023-09-06T14:42:00.464Z,101880.88
2023-09-06T14:44:27.789Z,101895.97
2023-09-06T14:46:54.619Z,101880.19
2023-09-06T14:49:21.549Z,101893.34
2023-09-06T14:51:48.276Z,101894.97
2023-09-06T14:54:14.994Z,101893.00
2023-09-06T14:56:44.172Z,101818.16
2023-09-06T14:59:13.418Z,101892.88
2023-09-06T15:01:40.265Z,101887.75
2023-09-06T15:04:07.452Z,101889.56
2023-09-06T15:06:56.370Z,101869.44
2023-09-06T15:09:26.442Z,101883.53
2023-09-06T15:11:56.447Z,101877.25
2023-09-06T15:14:27.300Z,101880.84
2023-09-06T15:16:54.058Z,101875.50
2023-09-06T15:19:20.917Z,101872.03
2023-09-06T15:21:50.168Z,101894.03
2023-09-06T15:24:18.189Z,101832.19
2023-09-06T15:26:44.940Z,101879.69
2023-09-06T15:29:12.656Z,101876.97
2023-09-06T15:31:39.375Z,101884.16
2023-09-06T15:34:06.152Z,101886.00
2023-09-06T15:36:35.038Z,101890.56
2023-09-06T15:39:02.945Z,101890.78
2023-09-06T15:41:33.898Z,101879.47
2023-09-06T15:44:03.564Z,101841.84
2023-09-06T15:46:33.354Z,101820.06
2023-09-06T15:49:00.114Z,101871.38
2023-09-06T15:51:29.337Z,101853.94
2023-09-06T15:53:58.642Z,101859.41
2023-09-06T15:56:28.310Z,101874.66
2023-09-06T15:58:55.252Z,101842.19
2023-09-06T16:01:22.407Z,101884.66
2023-09-06T16:03:51.825Z,101886.63
2023-09-06T16:06:21.084Z,101861.13
2023-09-06T16:08:47.853Z,101877.09
2023-09-06T16:11:14.648Z,101888.69
2023-09-06T16:13:41.349Z,101885.25
2023-09-06T16:16:08.045Z,101809.63
2023-09-06T16:18:34.849Z,101883.72
2023-09-06T16:21:01.596Z,101881.97
2023-09-06T16:23:29.334Z,101879.41
2023-09-06T16:25:58.275Z,101877.84
2023-09-06T16:28:27.524Z,101894.56
2023-09-06T16:30:56.702Z,101858.44
2023-09-06T16:33:26.059Z,101894.56
2023-09-06T16:35:53.021Z,101873.31
2023-09-06T16:38:20.090Z,101882.97
2023-09-06T16:40:49.359Z,101885.59
2023-09-06T16:43:16.241Z,101877.59
2023-09-06T16:45:45.569Z,101885.63
2023-09-06T16:48:12.416Z,101842.38
2023-09-06T16:50:40.564Z,101847.78
2023-09-06T16:53:07.553Z,101880.28
2023-09-06T16:55:34.617Z,101831.78
2023-09-06T16:58:07.972Z,101855.66
2023-09-06T17:00:35.999Z,101861.84
2023-09-06T17:03:02.888Z,101870.75
2023-09-06T17:05:29.624Z,101863.81
2023-09-06T17:07:56.336Z,101868.22
2023-09-06T17:10:23.104Z,101856.03
2023-09-06T17:12:53.628Z,101872.81
2023-09-06T17:15:22.607Z,101872.03
2023-09-06T17:17:51.006Z,101880.03
2023-09-06T17:20:19.424Z,101870.44
2023-09-06T17:22:46.564Z,101882.88
2023-09-06T17:25:13.520Z,101874.97
2023-09-06T17:27:43.872Z,101784.19
2023-09-06T17:30:20.457Z,101877.75
2023-09-06T17:33:07.050Z,101872.50
2023-09-06T17:35:34.394Z,101868.16
2023-09-06T17:38:07.585Z,101875.34
2023-09-06T17:40:35.383Z,101848.03
2023-09-06T17:43:02.328Z,101849.88
2023-09-06T17:45:31.255Z,101813.72
2023-09-06T17:47:59.016Z,101866.69
2023-09-06T17:50:25.988Z,101798.78
2023-09-06T17:52:52.650Z,101843.78
2023-09-06T17:55:21.122Z,101810.31
2023-09-06T17:57:48.702Z,101866.88
2023-09-06T18:00:24.139Z,101879.25
2023-09-06T18:02:51.679Z,101855.41
2023-09-06T18:05:21.216Z,101853.69
2023-09-06T18:07:48.257Z,101776.06
2023-09-06T18:10:17.776Z,101861.63
2023-09-06T18:12:44.987Z,101870.47
2023-09-06T18:15:13.479Z,101877.59
2023-09-06T18:17:52.524Z,101806.19
2023-09-06T18:20:19.552Z,101852.88
2023-09-06T18:22:49.271Z,101851.06
2023-09-06T18:25:15.948Z,101866.09
2023-09-06T18:27:42.649Z,101822.91
2023-09-06T18:30:16.852Z,101871.44
2023-09-06T18:32:44.151Z,101875.88
2023-09-06T18:35:12.087Z,101872.34
2023-09-06T18:37:39.184Z,101878.59
2023-09-06T18:40:16.496Z,101877.75
2023-09-06T18:42:53.496Z,101887.53
2023-09-06T18:45:21.013Z,101871.56
2023-09-06T18:47:50.523Z,101886.66
2023-09-06T18:50:18.910Z,101880.50
2023-09-06T18:52:47.014Z,101885.81
2023-09-06T18:55:16.278Z,101890.34
2023-09-06T18:57:55.460Z,101903.63
2023-09-06T19:00:26.091Z,101895.72
2023-09-06T19:02:54.085Z,101897.53
2023-09-06T19:05:20.957Z,101886.94
2023-09-06T19:07:48.685Z,101883.41
2023-09-06T19:10:17.498Z,101896.63
2023-09-06T19:12:46.037Z,101892.25
2023-09-06T19:15:17.673Z,101886.97
2023-09-06T19:17:48.010Z,101902.00
2023-09-06T19:20:19.716Z,101908.25
2023-09-06T19:22:53.982Z,101906.50
2023-09-06T19:25:25.438Z,101912.75
2023-09-06T19:27:53.155Z,101910.97
2023-09-06T19:30:22.450Z,101876.56
2023-09-06T19:32:51.535Z,101918.97
2023-09-06T19:35:18.512Z,101911.00
2023-09-06T19:37:45.360Z,101904.88
2023-09-06T19:40:14.508Z,101902.22
2023-09-06T19:42:41.268Z,101897.81
2023-09-06T19:45:10.392Z,101886.31
2023-09-06T19:47:38.050Z,101862.44
2023-09-06T19:50:05.656Z,101878.38
2023-09-06T19:52:32.340Z,101864.22
2023-09-06T19:55:02.185Z,101887.22
2023-09-06T19:57:31.716Z,101875.69
2023-09-06T20:00:02.320Z,101873.06
2023-09-06T20:02:31.770Z,101873.06
2023-09-06T20:04:59.039Z,101865.97
2023-09-06T20:07:26.081Z,101839.44
2023-09-06T20:09:53.518Z,101849.22
2023-09-06T20:12:20.269Z,101852.72
2023-09-06T20:14:47.076Z,101837.72
2023-09-06T20:17:13.823Z,101854.50
2023-09-06T20:19:40.616Z,101866.03
2023-09-06T20:22:07.249Z,101852.75
2023-09-06T20:24:33.926Z,101853.66
2023-09-06T20:27:00.656Z,101864.28
2023-09-06T20:29:33.281Z,101866.03
2023-09-06T20:32:01.083Z,101752.97
2023-09-06T20:34:30.868Z,101806.88
2023-09-06T20:36:57.561Z,101871.38
2023-09-06T20:39:26.461Z,101874.03
2023-09-06T20:41:53.127Z,101880.22
2023-09-06T20:44:19.825Z,101875.78
2023-09-06T20:46:46.604Z,101863.44
2023-09-06T20:49:18.326Z,101882.00
2023-09-06T20:51:46.034Z,101874.91
2023-09-06T20:54:12.979Z,101873.16
2023-09-06T20:56:42.708Z,101877.59
2023-09-06T20:59:09.470Z,101880.25
2023-09-06T21:01:36.194Z,101873.16
2023-09-06T21:04:05.659Z,101859.03
2023-09-06T21:06:33.276Z,101871.41
2023-09-06T21:09:02.298Z,101845.78
2023-09-06T21:11:29.153Z,101877.56
2023-09-06T21:13:55.914Z,101882.88
2023-09-06T21:16:25.065Z,101874.97
2023-09-06T21:18:52.564Z,101878.47
2023-09-06T21:21:19.464Z,101875.81
2023-09-06T21:23:46.239Z,101881.13
2023-09-06T21:26:12.953Z,101870.53
2023-09-06T21:28:39.726Z,101895.28
2023-09-06T21:31:08.749Z,101886.44
2023-09-06T21:33:35.563Z,101892.63
2023-09-06T21:36:02.398Z,101879.38
2023-09-06T21:38:29.520Z,101791.91
2023-09-06T21:40:57.964Z,101896.19
2023-09-06T21:43:24.847Z,101897.06
2023-09-06T21:45:55.902Z,101910.34
2023-09-06T21:48:23.271Z,101900.63
2023-09-06T21:50:55.484Z,101867.03
2023-09-06T21:53:22.163Z,101884.72
2023-09-06T21:55:51.322Z,101881.16
2023-09-06T21:58:20.264Z,101899.75
2023-09-06T22:00:46.983Z,101901.50
2023-09-06T22:03:15.016Z,101879.41
2023-09-06T22:05:41.747Z,101902.38
2023-09-06T22:08:08.992Z,101813.13
2023-09-06T22:10:35.620Z,101895.34
2023-09-06T22:13:03.932Z,101903.28
2023-09-06T22:15:30.684Z,101889.13
2023-09-06T22:17:57.687Z,101895.31
2023-09-06T22:20:24.607Z,101900.63
2023-09-06T22:22:53.570Z,101798.09
2023-09-06T22:25:23.414Z,101889.16
2023-09-06T22:27:51.335Z,101888.28
2023-09-06T22:30:20.660Z,101894.47
2023-09-06T22:32:47.340Z,101902.41
2023-09-06T22:35:14.214Z,101913.03
2023-09-06T22:37:42.591Z,101913.91
2023-09-06T22:40:09.961Z,101913.91
2023-09-06T22:42:36.710Z,101920.09
2023-09-06T22:45:03.579Z,101910.38
2023-09-06T22:47:30.294Z,101921.84
2023-09-06T22:49:57.104Z,101912.16
2023-09-06T22:52:24.737Z,101928.06
2023-09-06T22:54:51.650Z,101916.56
2023-09-06T22:57:18.776Z,101920.09
2023-09-06T22:59:45.588Z,101917.44
2023-09-06T23:02:12.389Z,101915.69
2023-09-06T23:04:41.975Z,101915.69
2023-09-06T23:07:12.200Z,101907.72
2023-09-06T23:09:41.153Z,101905.09
2023-09-06T23:12:07.948Z,101914.78
2023-09-06T23:14:38.237Z,101901.56
2023-09-06T23:17:08.727Z,101894.41
2023-09-06T23:19:48.374Z,101897.09
2023-09-06T23:22:18.277Z,101897.97
2023-09-06T23:24:50.610Z,101897.09
2023-09-06T23:27:24.428Z,101899.75
2023-09-06T23:29:59.780Z,101902.41
2023-09-06T23:32:32.327Z,101904.16
2023-09-06T23:34:59.595Z,101881.19
2023-09-06T23:37:28.034Z,101910.38
2023-09-06T23:39:55.730Z,101894.41
2023-09-06T23:42:23.219Z,101902.41
2023-09-06T23:44:49.975Z,101900.63
2023-09-06T23:47:17.656Z,101894.41
2023-09-06T23:49:46.779Z,101886.50
2023-09-06T23:52:16.132Z,101877.63
2023-09-06T23:54:48.542Z,101875.84
2023-09-06T23:57:19.115Z,101870.56
2023-09-06T23:59:46.888Z,101887.34
